createdAt,value
2022-10-31T00:01:36.655Z,5.95
2022-10-31T00:04:07.575Z,5.65
2022-10-31T00:06:36.008Z,5.90
2022-10-31T00:09:06.937Z,6.00
2022-10-31T00:11:35.643Z,5.65
2022-10-31T00:14:04.110Z,7.05
2022-10-31T00:16:32.874Z,5.88
2022-10-31T00:19:03.646Z,6.38
2022-10-31T00:21:34.271Z,5.80
2022-10-31T00:24:03.304Z,6.10
2022-10-31T00:26:33.405Z,5.07
2022-10-31T00:29:02.509Z,4.97
2022-10-31T00:31:31.141Z,5.55
2022-10-31T00:34:00.520Z,6.03
2022-10-31T00:36:29.054Z,5.55
2022-10-31T00:39:02.265Z,6.00
2022-10-31T00:41:31.092Z,6.47
2022-10-31T00:43:59.722Z,5.68
2022-10-31T00:46:28.131Z,6.18
2022-10-31T00:48:56.487Z,5.60
2022-10-31T00:51:24.950Z,5.75
2022-10-31T00:53:53.833Z,5.82
2022-10-31T00:56:23.422Z,5.75
2022-10-31T00:58:51.914Z,5.93
2022-10-31T01:01:22.043Z,5.38
2022-10-31T01:03:51.271Z,4.40
2022-10-31T01:06:19.492Z,5.50
2022-10-31T01:08:49.994Z,6.05
2022-10-31T01:11:21.653Z,5.30
2022-10-31T01:13:54.183Z,5.38
2022-10-31T01:16:25.031Z,5.97
2022-10-31T01:18:54.278Z,4.50
2022-10-31T01:21:25.296Z,4.88
2022-10-31T01:23:55.846Z,4.93
2022-10-31T01:26:26.647Z,4.97
2022-10-31T01:28:59.094Z,4.85
2022-10-31T01:31:29.493Z,4.28
2022-10-31T01:33:58.598Z,4.07
2022-10-31T01:36:30.212Z,4.45
2022-10-31T01:39:01.734Z,4.60
2022-10-31T01:41:34.231Z,3.72
2022-10-31T01:44:21.097Z,4.05
2022-10-31T01:46:54.375Z,4.07
2022-10-31T01:49:26.823Z,4.25
2022-10-31T01:52:00.608Z,4.75
2022-10-31T01:54:35.197Z,4.80
2022-10-31T01:57:07.109Z,3.67
2022-10-31T01:59:44.231Z,4.03
2022-10-31T02:02:13.478Z,4.07
2022-10-31T02:04:43.047Z,4.43
2022-10-31T02:07:16.571Z,4.18
2022-10-31T02:09:46.998Z,4.25
2022-10-31T02:12:16.915Z,4.13
2022-10-31T02:14:48.305Z,4.78
2022-10-31T02:17:17.010Z,5.22
2022-10-31T02:19:58.506Z,6.00
2022-10-31T02:22:38.000Z,4.88
2022-10-31T02:25:47.206Z,5.75
2022-10-31T02:28:42.978Z,5.90
2022-10-31T02:31:29.404Z,5.65
2022-10-31T02:34:04.769Z,5.38
2022-10-31T02:36:43.111Z,5.25
2022-10-31T02:39:20.849Z,5.35
2022-10-31T02:41:54.311Z,6.00
2022-10-31T02:44:30.305Z,5.78
2022-10-31T02:47:04.331Z,5.07
2022-10-31T02:49:47.695Z,5.82
2022-10-31T02:52:20.781Z,5.07
2022-10-31T02:54:49.791Z,5.53
2022-10-31T02:57:22.805Z,4.43
2022-10-31T02:59:57.454Z,6.78
2022-10-31T03:02:51.099Z,5.18
2022-10-31T03:05:47.169Z,5.13
2022-10-31T03:08:24.301Z,4.85
2022-10-31T03:10:58.775Z,5.88
2022-10-31T03:13:37.763Z,6.15
2022-10-31T03:16:14.241Z,6.65
2022-10-31T03:18:52.435Z,6.07
2022-10-31T03:21:25.813Z,6.05
2022-10-31T03:23:55.515Z,6.10
2022-10-31T03:26:26.039Z,5.95
2022-10-31T03:28:59.615Z,5.93
2022-10-31T03:31:33.092Z,5.25
2022-10-31T03:34:05.002Z,7.07
2022-10-31T03:36:37.956Z,6.55
2022-10-31T03:39:10.707Z,7.57
2022-10-31T03:41:46.840Z,8.25
2022-10-31T03:44:21.195Z,7.32
2022-10-31T03:46:59.104Z,6.18
2022-10-31T03:49:29.539Z,6.60
2022-10-31T03:52:07.591Z,6.80
2022-10-31T03:54:43.954Z,6.95
2022-10-31T03:57:22.425Z,6.70
2022-10-31T03:59:58.005Z,7.40
2022-10-31T04:02:32.175Z,8.02
2022-10-31T04:05:03.299Z,8.55
2022-10-31T04:07:37.610Z,9.25
2022-10-31T04:10:13.229Z,9.15
2022-10-31T04:12:48.697Z,8.48
2022-10-31T04:15:25.610Z,7.28
2022-10-31T04:17:59.072Z,6.70
2022-10-31T04:20:35.917Z,7.65
2022-10-31T04:23:05.414Z,8.40
2022-10-31T04:25:34.098Z,7.80
2022-10-31T04:28:02.783Z,7.15
2022-10-31T04:30:32.051Z,5.32
2022-10-31T04:33:00.969Z,5.22
2022-10-31T04:35:29.660Z,5.10
2022-10-31T04:37:59.279Z,5.60
2022-10-31T04:40:27.818Z,5.38
2022-10-31T04:43:25.500Z,5.82
2022-10-31T04:45:54.907Z,5.85
2022-10-31T04:48:23.113Z,5.93
2022-10-31T04:50:51.697Z,6.72
2022-10-31T04:53:21.458Z,6.57
2022-10-31T04:56:22.113Z,6.13
2022-10-31T04:58:55.319Z,6.13
2022-10-31T05:01:25.610Z,6.95
2022-10-31T05:03:53.947Z,6.28
2022-10-31T05:06:23.406Z,7.10
2022-10-31T05:08:53.298Z,7.38
2022-10-31T05:11:21.991Z,6.30
2022-10-31T05:13:50.175Z,6.85
2022-10-31T05:16:44.637Z,5.80
2022-10-31T05:19:31.555Z,6.93
2022-10-31T05:22:26.074Z,7.60
2022-10-31T05:24:56.731Z,7.75
2022-10-31T05:27:25.089Z,6.32
2022-10-31T05:29:53.714Z,5.90
2022-10-31T05:32:22.476Z,6.65
2022-10-31T05:35:16.702Z,6.38
2022-10-31T05:38:10.293Z,5.47
2022-10-31T05:40:42.714Z,5.60
2022-10-31T05:43:11.398Z,6.13
2022-10-31T05:45:39.623Z,6.35
2022-10-31T05:48:13.581Z,5.93
2022-10-31T05:51:04.896Z,6.63
2022-10-31T05:53:33.556Z,7.80
2022-10-31T05:56:03.409Z,5.68
2022-10-31T05:58:32.175Z,6.63
2022-10-31T06:01:07.480Z,5.80
2022-10-31T06:03:36.343Z,5.95
2022-10-31T06:06:08.058Z,6.32
2022-10-31T06:08:39.750Z,6.75
2022-10-31T06:11:15.198Z,6.25
2022-10-31T06:14:03.973Z,5.70
2022-10-31T06:16:53.875Z,6.53
2022-10-31T06:19:40.171Z,6.20
2022-10-31T06:22:09.636Z,6.45
2022-10-31T06:24:37.812Z,5.70
2022-10-31T06:27:20.274Z,6.30
2022-10-31T06:29:48.583Z,5.93
2022-10-31T06:32:25.072Z,5.75
2022-10-31T06:34:53.623Z,6.18
2022-10-31T06:37:21.967Z,6.25
2022-10-31T06:39:52.266Z,6.53
2022-10-31T06:42:21.943Z,6.32
2022-10-31T06:44:50.421Z,6.60
2022-10-31T06:48:03.858Z,7.43
2022-10-31T06:50:33.374Z,6.57
2022-10-31T06:53:02.027Z,6.55
2022-10-31T06:55:30.511Z,6.63
2022-10-31T06:58:03.193Z,6.68
2022-10-31T07:00:33.563Z,5.83
2022-10-31T07:03:13.396Z,6.40
2022-10-31T07:05:42.329Z,5.60
2022-10-31T07:08:13.016Z,6.35
2022-10-31T07:10:43.976Z,6.30
2022-10-31T07:13:16.168Z,5.88
2022-10-31T07:15:51.731Z,7.65
2022-10-31T07:18:20.203Z,9.85
2022-10-31T07:20:50.288Z,7.07
2022-10-31T07:23:20.643Z,6.65
2022-10-31T07:26:01.244Z,6.53
2022-10-31T07:28:41.417Z,7.80
2022-10-31T07:31:10.501Z,7.38
2022-10-31T07:33:40.132Z,7.57
2022-10-31T07:36:43.794Z,6.85
2022-10-31T07:39:14.434Z,7.13
2022-10-31T07:41:43.335Z,7.43
2022-10-31T07:44:13.523Z,7.28
2022-10-31T07:47:01.024Z,11.02
2022-10-31T07:50:04.726Z,13.60
2022-10-31T07:53:01.045Z,9.45
2022-10-31T07:55:47.822Z,7.05
2022-10-31T07:58:18.271Z,7.65
2022-10-31T08:00:49.769Z,7.72
2022-10-31T08:03:29.293Z,7.53
2022-10-31T08:06:23.695Z,8.55
2022-10-31T08:09:19.078Z,7.53
2022-10-31T08:11:47.385Z,8.43
2022-10-31T08:14:15.599Z,7.18
2022-10-31T08:16:45.252Z,7.55
2022-10-31T08:19:14.406Z,8.30
2022-10-31T08:21:42.666Z,7.50
2022-10-31T08:24:11.254Z,7.47
2022-10-31T08:26:40.589Z,7.65
2022-10-31T08:29:11.785Z,7.32
2022-10-31T08:31:42.948Z,7.30
2022-10-31T08:34:31.249Z,7.63
2022-10-31T08:37:37.755Z,7.90
2022-10-31T08:40:08.583Z,7.95
2022-10-31T08:42:37.249Z,7.47
2022-10-31T08:45:06.561Z,9.25
2022-10-31T08:47:35.606Z,8.90
2022-10-31T08:50:05.992Z,10.07
2022-10-31T08:53:03.054Z,8.73
2022-10-31T08:55:23.192Z,11.35
2022-10-31T08:58:06.830Z,12.07
2022-10-31T09:00:42.805Z,11.95
2022-10-31T09:03:25.125Z,12.32
2022-10-31T09:06:00.090Z,11.85
2022-10-31T09:08:33.015Z,12.45
2022-10-31T09:11:03.590Z,12.50
2022-10-31T09:13:53.820Z,11.88
2022-10-31T09:16:44.992Z,13.02
2022-10-31T09:19:22.386Z,11.50
2022-10-31T09:21:55.635Z,10.70
2022-10-31T09:24:24.632Z,10.45
2022-10-31T09:26:54.870Z,10.65
2022-10-31T09:29:28.750Z,9.30
2022-10-31T09:32:00.513Z,10.02
2022-10-31T09:34:33.351Z,9.85
2022-10-31T09:37:12.085Z,8.98
2022-10-31T09:39:41.733Z,8.75
2022-10-31T09:42:54.881Z,8.38
2022-10-31T09:45:33.292Z,8.32
2022-10-31T09:48:35.431Z,10.40
2022-10-31T09:51:25.319Z,8.95
2022-10-31T09:54:08.028Z,8.10
2022-10-31T09:56:36.865Z,8.93
2022-10-31T09:59:14.238Z,8.65
2022-10-31T10:01:50.387Z,8.88
2022-10-31T10:04:35.711Z,9.07
2022-10-31T10:07:22.995Z,8.32
2022-10-31T10:10:38.271Z,7.70
2022-10-31T10:13:49.810Z,7.97
2022-10-31T10:16:38.683Z,7.80
2022-10-31T10:19:24.140Z,8.32
2022-10-31T10:22:06.104Z,7.78
2022-10-31T10:24:57.722Z,6.78
2022-10-31T10:27:43.571Z,7.60
2022-10-31T10:30:18.535Z,7.70
2022-10-31T10:32:52.455Z,7.13
2022-10-31T10:35:28.131Z,7.75
2022-10-31T10:38:04.172Z,7.75
2022-10-31T10:40:33.191Z,6.80
2022-10-31T10:43:22.337Z,7.72
2022-10-31T10:46:35.602Z,6.97
2022-10-31T10:49:21.450Z,6.78
2022-10-31T10:52:13.154Z,5.88
2022-10-31T10:54:59.081Z,6.47
2022-10-31T10:57:44.912Z,6.85
2022-10-31T11:00:21.906Z,6.20
2022-10-31T11:02:51.056Z,6.70
2022-10-31T11:05:35.222Z,7.65
2022-10-31T11:08:04.393Z,7.23
2022-10-31T11:10:33.191Z,7.00
2022-10-31T11:13:07.862Z,5.60
2022-10-31T11:18:22.689Z,6.57
2022-10-31T11:20:55.335Z,7.05
2022-10-31T11:23:26.025Z,7.38
2022-10-31T11:25:58.550Z,6.82
2022-10-31T11:28:27.564Z,6.15
2022-10-31T11:31:00.743Z,6.45
2022-10-31T11:33:35.934Z,7.07
2022-10-31T11:36:22.213Z,6.78
2022-10-31T11:38:51.954Z,6.95
2022-10-31T11:41:27.055Z,6.78
2022-10-31T11:44:00.534Z,6.35
2022-10-31T11:46:36.732Z,7.03
2022-10-31T11:49:06.877Z,7.10
2022-10-31T11:51:36.854Z,6.70
2022-10-31T11:54:07.815Z,7.68
2022-10-31T11:56:41.953Z,6.55
2022-10-31T11:59:22.871Z,6.28
2022-10-31T12:01:55.051Z,7.75
2022-10-31T12:04:42.254Z,6.90
2022-10-31T12:07:10.689Z,6.50
2022-10-31T12:09:41.121Z,6.35
2022-10-31T12:12:57.223Z,7.93
2022-10-31T12:18:41.751Z,6.63
2022-10-31T12:21:46.997Z,6.63
2022-10-31T12:24:30.310Z,6.78
2022-10-31T12:27:16.118Z,6.88
2022-10-31T12:30:04.396Z,11.30
2022-10-31T12:32:43.347Z,7.82
2022-10-31T12:35:35.565Z,6.00
2022-10-31T12:38:28.777Z,6.00
2022-10-31T12:41:18.234Z,6.47
2022-10-31T12:43:55.329Z,7.07
2022-10-31T12:46:40.807Z,6.43
2022-10-31T12:49:32.414Z,6.20
2022-10-31T12:52:23.122Z,5.70
2022-10-31T12:55:11.327Z,6.20
2022-10-31T12:57:46.614Z,6.13
2022-10-31T13:00:17.868Z,6.88
2022-10-31T13:02:52.591Z,6.15
2022-10-31T13:08:03.614Z,5.82
2022-10-31T13:10:38.682Z,5.20
2022-10-31T13:13:14.998Z,6.50
2022-10-31T13:15:51.405Z,6.43
2022-10-31T13:18:29.873Z,6.22
2022-10-31T13:20:59.662Z,7.63
2022-10-31T13:26:33.719Z,6.47
2022-10-31T13:29:15.167Z,6.13
2022-10-31T13:31:44.089Z,10.77
2022-10-31T13:34:28.312Z,7.38
2022-10-31T13:37:07.482Z,6.03
2022-10-31T13:40:00.680Z,6.72
2022-10-31T13:42:43.532Z,6.07
2022-10-31T13:45:17.052Z,6.75
2022-10-31T13:47:45.491Z,6.38
2022-10-31T13:50:26.373Z,5.70
2022-10-31T13:53:05.366Z,6.40
2022-10-31T13:55:46.341Z,5.55
2022-10-31T13:58:31.035Z,7.00
2022-10-31T14:01:17.731Z,7.45
2022-10-31T14:04:07.751Z,5.90
2022-10-31T14:06:46.342Z,5.65
2022-10-31T14:09:32.934Z,5.05
2022-10-31T14:12:07.776Z,5.35
2022-10-31T14:14:48.322Z,5.70
2022-10-31T14:17:25.458Z,4.82
2022-10-31T14:20:34.704Z,4.45
2022-10-31T14:23:38.795Z,4.28
2022-10-31T14:26:36.115Z,4.45
2022-10-31T14:29:29.078Z,5.30
2022-10-31T14:32:11.551Z,5.20
2022-10-31T14:34:43.171Z,5.05
2022-10-31T14:37:40.021Z,5.07
2022-10-31T14:40:32.566Z,4.57
2022-10-31T14:43:39.163Z,6.07
2022-10-31T14:46:17.539Z,5.72
2022-10-31T14:49:14.351Z,5.40
2022-10-31T14:51:46.617Z,5.70
2022-10-31T14:54:21.460Z,5.75
2022-10-31T14:56:55.267Z,5.95
2022-10-31T14:59:30.294Z,5.30
2022-10-31T15:02:09.362Z,6.03
2022-10-31T15:04:39.196Z,4.90
2022-10-31T15:07:13.404Z,5.55
2022-10-31T15:09:44.387Z,5.47
2022-10-31T15:12:28.312Z,5.07
2022-10-31T15:14:59.345Z,5.88
2022-10-31T15:17:29.101Z,5.80
2022-10-31T15:19:57.541Z,5.95
2022-10-31T15:22:28.109Z,5.40
2022-10-31T15:24:58.371Z,5.70
2022-10-31T15:27:27.814Z,6.53
2022-10-31T15:30:01.339Z,5.43
2022-10-31T15:32:34.485Z,8.52
2022-10-31T15:35:03.659Z,7.55
2022-10-31T15:37:32.332Z,6.50
2022-10-31T15:40:16.282Z,9.60
2022-10-31T15:42:45.496Z,7.55
2022-10-31T15:45:26.329Z,7.30
2022-10-31T15:47:59.798Z,8.80
2022-10-31T15:50:34.477Z,6.53
2022-10-31T15:53:03.932Z,5.03
2022-10-31T15:55:38.823Z,4.85
2022-10-31T16:00:42.529Z,4.45
2022-10-31T16:03:27.151Z,6.65
2022-10-31T16:05:58.526Z,5.63
2022-10-31T16:08:35.285Z,5.95
2022-10-31T16:11:19.043Z,5.80
2022-10-31T16:13:59.129Z,7.90
2022-10-31T16:16:35.344Z,6.07
2022-10-31T16:19:14.888Z,7.53
2022-10-31T16:21:43.775Z,6.65
2022-10-31T16:24:20.846Z,6.63
2022-10-31T16:26:54.664Z,6.88
2022-10-31T16:29:35.269Z,5.85
2022-10-31T16:32:03.601Z,7.35
2022-10-31T16:34:33.150Z,5.95
2022-10-31T16:37:03.531Z,7.88
2022-10-31T16:39:32.180Z,6.65
2022-10-31T16:42:00.398Z,6.78
2022-10-31T16:44:29.250Z,6.93
2022-10-31T16:47:14.309Z,6.43
2022-10-31T16:49:44.559Z,6.00
2022-10-31T16:52:13.680Z,6.05
2022-10-31T16:54:42.279Z,5.93
2022-10-31T16:57:16.785Z,5.75
2022-10-31T16:59:46.451Z,5.82
2022-10-31T17:02:18.333Z,6.30
2022-10-31T17:04:50.781Z,6.85
2022-10-31T17:07:22.301Z,6.28
2022-10-31T17:09:50.787Z,6.10
2022-10-31T17:12:23.733Z,6.38
2022-10-31T17:14:53.730Z,6.53
2022-10-31T17:17:21.973Z,6.95
2022-10-31T17:19:51.662Z,6.50
2022-10-31T17:22:19.871Z,6.18
2022-10-31T17:24:48.085Z,7.38
2022-10-31T17:27:16.392Z,6.78
2022-10-31T17:29:44.887Z,7.07
2022-10-31T17:32:13.379Z,7.38
2022-10-31T17:34:41.619Z,7.18
2022-10-31T17:37:12.598Z,8.73
2022-10-31T17:39:40.898Z,10.07
2022-10-31T17:42:09.433Z,8.82
2022-10-31T17:44:37.666Z,8.80
2022-10-31T17:47:06.284Z,7.95
2022-10-31T17:49:34.819Z,6.95
2022-10-31T17:52:03.113Z,7.22
2022-10-31T17:54:32.668Z,8.13
2022-10-31T17:57:01.257Z,7.00
2022-10-31T17:59:30.154Z,9.07
2022-10-31T18:01:59.631Z,9.27
2022-10-31T18:04:28.554Z,9.20
2022-10-31T18:06:57.041Z,8.23
2022-10-31T18:09:27.747Z,11.20
2022-10-31T18:11:57.392Z,14.38
2022-10-31T18:14:25.626Z,18.15
2022-10-31T18:16:53.803Z,15.50
2022-10-31T18:19:22.070Z,16.27
2022-10-31T18:21:50.538Z,14.25
2022-10-31T18:24:18.735Z,10.27
2022-10-31T18:26:46.963Z,10.32
2022-10-31T18:29:16.533Z,9.57
2022-10-31T18:31:48.359Z,8.85
2022-10-31T18:34:16.995Z,9.40
2022-10-31T18:36:45.628Z,9.60
2022-10-31T18:39:14.779Z,10.52
2022-10-31T18:41:43.381Z,10.30
2022-10-31T18:44:12.047Z,10.38
2022-10-31T18:46:41.800Z,9.82
2022-10-31T18:49:10.819Z,10.63
2022-10-31T18:51:39.063Z,11.63
2022-10-31T18:54:07.448Z,15.15
2022-10-31T18:56:35.634Z,16.00
2022-10-31T18:59:04.230Z,16.20
2022-10-31T19:01:32.822Z,14.15
2022-10-31T19:04:02.497Z,15.60
2022-10-31T19:06:31.198Z,15.20
2022-10-31T19:09:01.486Z,14.85
2022-10-31T19:11:32.704Z,15.68
2022-10-31T19:14:01.511Z,15.02
2022-10-31T19:16:30.695Z,13.13
2022-10-31T19:18:59.967Z,12.32
2022-10-31T19:21:30.517Z,10.60
2022-10-31T19:23:59.774Z,12.52
2022-10-31T19:26:28.834Z,11.60
2022-10-31T19:28:57.898Z,16.08
2022-10-31T19:31:26.198Z,25.08
2022-10-31T19:33:54.691Z,15.48
2022-10-31T19:36:24.145Z,11.25
2022-10-31T19:38:54.719Z,10.95
2022-10-31T19:41:26.314Z,10.10
2022-10-31T19:43:55.550Z,8.68
2022-10-31T19:46:53.221Z,10.95
2022-10-31T19:49:14.829Z,12.23
2022-10-31T19:51:43.361Z,11.02
2022-10-31T19:54:13.584Z,11.45
2022-10-31T19:56:41.799Z,11.70
2022-10-31T19:59:10.126Z,11.68
2022-10-31T20:01:38.686Z,14.13
2022-10-31T20:04:07.268Z,11.35
2022-10-31T20:06:39.257Z,11.48
2022-10-31T20:09:10.026Z,11.50
2022-10-31T20:11:39.861Z,12.05
2022-10-31T20:14:09.376Z,12.20
2022-10-31T20:16:38.118Z,12.60
2022-10-31T20:19:06.803Z,10.18
2022-10-31T20:21:39.637Z,10.73
2022-10-31T20:24:10.408Z,10.20
2022-10-31T20:26:41.961Z,10.80
2022-10-31T20:29:15.800Z,10.07
2022-10-31T20:31:45.507Z,9.82
2022-10-31T20:34:14.999Z,10.45
2022-10-31T20:36:43.553Z,11.40
2022-10-31T20:39:11.820Z,9.80
2022-10-31T20:41:41.356Z,10.65
2022-10-31T20:44:09.850Z,10.77
2022-10-31T20:46:38.087Z,10.85
2022-10-31T20:49:07.198Z,11.02
2022-10-31T20:51:35.782Z,10.65
2022-10-31T20:54:04.328Z,10.57
2022-10-31T20:56:32.555Z,9.18
2022-10-31T20:59:02.207Z,10.73
2022-10-31T21:01:33.494Z,11.13
2022-10-31T21:04:01.890Z,11.07
2022-10-31T21:06:30.993Z,9.02
2022-10-31T21:08:59.976Z,10.48
2022-10-31T21:11:29.481Z,11.52
2022-10-31T21:13:59.369Z,10.27
2022-10-31T21:16:32.306Z,9.60
2022-10-31T21:19:01.890Z,9.30
2022-10-31T21:21:33.226Z,9.00
2022-10-31T21:24:04.610Z,10.20
2022-10-31T21:26:36.045Z,8.68
2022-10-31T21:29:06.215Z,9.63
2022-10-31T21:31:36.678Z,9.40
2022-10-31T21:34:05.681Z,9.55
2022-10-31T21:36:34.654Z,10.43
2022-10-31T21:39:03.506Z,11.00
2022-10-31T21:41:32.383Z,10.30
2022-10-31T21:44:00.952Z,11.63
2022-10-31T21:46:31.693Z,12.43
2022-10-31T21:49:04.697Z,12.25
2022-10-31T21:51:35.422Z,12.00
2022-10-31T21:54:22.549Z,12.77
2022-10-31T21:56:51.612Z,11.90
2022-10-31T21:59:20.118Z,12.43
2022-10-31T22:01:48.569Z,13.18
2022-10-31T22:04:18.748Z,13.30
2022-10-31T22:06:47.364Z,12.70
2022-10-31T22:09:17.229Z,10.90
2022-10-31T22:11:45.493Z,10.50
2022-10-31T22:14:15.405Z,12.20
2022-10-31T22:16:43.897Z,10.88
2022-10-31T22:19:15.013Z,12.70
2022-10-31T22:21:47.248Z,12.15
2022-10-31T22:24:16.554Z,14.00
2022-10-31T22:26:45.109Z,13.77
2022-10-31T22:29:16.013Z,15.30
2022-10-31T22:31:46.042Z,14.15
2022-10-31T22:34:16.597Z,14.10
2022-10-31T22:36:46.378Z,14.23
2022-10-31T22:39:15.227Z,15.38
2022-10-31T22:41:43.553Z,18.00
2022-10-31T22:44:12.180Z,18.23
2022-10-31T22:46:41.111Z,19.67
2022-10-31T22:49:15.105Z,20.23
2022-10-31T22:51:45.839Z,19.55
2022-10-31T22:54:17.969Z,21.75
2022-10-31T22:56:46.933Z,21.77
2022-10-31T22:59:16.827Z,22.50
2022-10-31T23:01:45.982Z,21.88
2022-10-31T23:04:15.846Z,20.45
2022-10-31T23:06:46.137Z,20.20
2022-10-31T23:09:18.395Z,21.63
2022-10-31T23:11:47.154Z,18.85
2022-10-31T23:14:20.498Z,20.65
2022-10-31T23:16:53.134Z,20.17
2022-10-31T23:19:24.612Z,22.08
2022-10-31T23:21:57.509Z,20.45
2022-10-31T23:24:29.667Z,19.30
2022-10-31T23:27:11.192Z,19.05
2022-10-31T23:29:46.850Z,17.92
2022-10-31T23:32:20.322Z,16.80
2022-10-31T23:34:50.031Z,17.98
2022-10-31T23:37:21.504Z,17.38
2022-10-31T23:39:50.059Z,17.63
2022-10-31T23:42:19.056Z,17.08
2022-10-31T23:44:47.825Z,16.27
2022-10-31T23:47:17.567Z,17.05
2022-10-31T23:49:45.953Z,17.33
2022-10-31T23:52:15.133Z,20.48
2022-10-31T23:54:45.381Z,17.63
2022-10-31T23:57:14.869Z,18.30
2022-10-31T23:59:43.769Z,16.92
